sensor_id;sensor_type;location;lat;lon;timestamp;temperature;humidity
56103;DHT22;41970;48.774;9.280;2022-09-09T00:02:22;17.80;97.60
56103;DHT22;41970;48.774;9.280;2022-09-09T00:07:56;17.80;97.50
56103;DHT22;41970;48.774;9.280;2022-09-09T00:10:33;17.70;97.60
56103;DHT22;41970;48.774;9.280;2022-09-09T00:13:16;17.70;97.50
56103;DHT22;41970;48.774;9.280;2022-09-09T00:21:08;17.60;97.80
56103;DHT22;41970;48.774;9.280;2022-09-09T00:23:46;17.60;98.20
56103;DHT22;41970;48.774;9.280;2022-09-09T00:26:16;17.60;97.80
56103;DHT22;41970;48.774;9.280;2022-09-09T00:31:34;17.60;97.50
56103;DHT22;41970;48.774;9.280;2022-09-09T00:34:11;17.60;97.50
56103;DHT22;41970;48.774;9.280;2022-09-09T00:36:39;17.60;97.60
56103;DHT22;41970;48.774;9.280;2022-09-09T00:39:05;17.70;97.60
56103;DHT22;41970;48.774;9.280;2022-09-09T00:42:02;17.70;97.50
56103;DHT22;41970;48.774;9.280;2022-09-09T00:44:36;17.70;97.60
56103;DHT22;41970;48.774;9.280;2022-09-09T00:47:17;17.60;97.70
56103;DHT22;41970;48.774;9.280;2022-09-09T00:57:46;17.60;97.80
56103;DHT22;41970;48.774;9.280;2022-09-09T01:00:22;17.70;97.90
56103;DHT22;41970;48.774;9.280;2022-09-09T01:10:50;17.70;97.80
56103;DHT22;41970;48.774;9.280;2022-09-09T01:13:27;17.70;98.00
56103;DHT22;41970;48.774;9.280;2022-09-09T01:15:58;17.80;98.00
56103;DHT22;41970;48.774;9.280;2022-09-09T01:18:32;17.90;97.90
56103;DHT22;41970;48.774;9.280;2022-09-09T01:21:22;17.90;97.60
56103;DHT22;41970;48.774;9.280;2022-09-09T01:26:34;17.90;97.60
56103;DHT22;41970;48.774;9.280;2022-09-09T01:29:01;17.90;97.70
56103;DHT22;41970;48.774;9.280;2022-09-09T01:31:32;17.80;97.70
56103;DHT22;41970;48.774;9.280;2022-09-09T01:34:00;17.80;97.90
56103;DHT22;41970;48.774;9.280;2022-09-09T01:36:35;17.80;97.90
56103;DHT22;41970;48.774;9.280;2022-09-09T01:39:03;17.80;97.90
56103;DHT22;41970;48.774;9.280;2022-09-09T01:41:29;17.80;97.90
56103;DHT22;41970;48.774;9.280;2022-09-09T01:43:55;17.80;97.90
56103;DHT22;41970;48.774;9.280;2022-09-09T01:46:25;17.80;98.10
56103;DHT22;41970;48.774;9.280;2022-09-09T01:48:52;17.70;98.10
56103;DHT22;41970;48.774;9.280;2022-09-09T01:51:18;17.70;98.20
56103;DHT22;41970;48.774;9.280;2022-09-09T01:53:45;17.70;98.10
56103;DHT22;41970;48.774;9.280;2022-09-09T01:56:18;17.80;97.90
56103;DHT22;41970;48.774;9.280;2022-09-09T02:09:43;17.70;97.60
56103;DHT22;41970;48.774;9.280;2022-09-09T02:12:17;17.60;96.90
56103;DHT22;41970;48.774;9.280;2022-09-09T02:15:12;17.20;97.10
56103;DHT22;41970;48.774;9.280;2022-09-09T02:17:36;16.90;97.70
56103;DHT22;41970;48.774;9.280;2022-09-09T02:20:14;16.90;98.30
56103;DHT22;41970;48.774;9.280;2022-09-09T02:22:42;17.00;98.50
56103;DHT22;41970;48.774;9.280;2022-09-09T02:25:12;17.10;98.50
56103;DHT22;41970;48.774;9.280;2022-09-09T02:27:41;17.10;98.30
56103;DHT22;41970;48.774;9.280;2022-09-09T02:30:09;17.10;98.30
56103;DHT22;41970;48.774;9.280;2022-09-09T02:32:36;17.10;98.40
56103;DHT22;41970;48.774;9.280;2022-09-09T02:35:10;17.20;98.20
56103;DHT22;41970;48.774;9.280;2022-09-09T02:37:39;17.20;98.10
56103;DHT22;41970;48.774;9.280;2022-09-09T02:40:06;17.10;98.00
56103;DHT22;41970;48.774;9.280;2022-09-09T02:42:44;17.00;98.20
56103;DHT22;41970;48.774;9.280;2022-09-09T02:45:13;17.10;98.50
56103;DHT22;41970;48.774;9.280;2022-09-09T02:50:25;17.10;98.10
56103;DHT22;41970;48.774;9.280;2022-09-09T02:53:06;17.10;98.10
56103;DHT22;41970;48.774;9.280;2022-09-09T02:56:16;16.90;98.40
56103;DHT22;41970;48.774;9.280;2022-09-09T02:58:35;16.90;98.50
56103;DHT22;41970;48.774;9.280;2022-09-09T03:01:02;16.90;98.30
56103;DHT22;41970;48.774;9.280;2022-09-09T03:03:28;17.00;98.20
56103;DHT22;41970;48.774;9.280;2022-09-09T03:05:55;17.00;97.90
56103;DHT22;41970;48.774;9.280;2022-09-09T03:08:22;17.10;98.20
56103;DHT22;41970;48.774;9.280;2022-09-09T03:10:48;17.10;97.80
56103;DHT22;41970;48.774;9.280;2022-09-09T03:13:15;17.00;97.80
56103;DHT22;41970;48.774;9.280;2022-09-09T03:15:41;17.00;97.80
56103;DHT22;41970;48.774;9.280;2022-09-09T03:18:07;16.90;97.90
56103;DHT22;41970;48.774;9.280;2022-09-09T03:20:33;16.90;98.20
56103;DHT22;41970;48.774;9.280;2022-09-09T03:23:00;16.90;98.10
56103;DHT22;41970;48.774;9.280;2022-09-09T03:25:26;16.90;98.10
56103;DHT22;41970;48.774;9.280;2022-09-09T03:27:53;17.00;98.10
56103;DHT22;41970;48.774;9.280;2022-09-09T03:30:27;17.00;98.10
56103;DHT22;41970;48.774;9.280;2022-09-09T03:32:53;17.10;98.00
56103;DHT22;41970;48.774;9.280;2022-09-09T03:35:20;17.10;98.40
56103;DHT22;41970;48.774;9.280;2022-09-09T03:37:47;17.10;98.10
56103;DHT22;41970;48.774;9.280;2022-09-09T03:40:13;17.10;98.00
56103;DHT22;41970;48.774;9.280;2022-09-09T03:42:41;17.10;98.00
56103;DHT22;41970;48.774;9.280;2022-09-09T03:45:08;17.10;98.10
56103;DHT22;41970;48.774;9.280;2022-09-09T03:47:36;17.10;98.20
56103;DHT22;41970;48.774;9.280;2022-09-09T03:50:03;17.10;98.20
56103;DHT22;41970;48.774;9.280;2022-09-09T03:52:31;17.00;97.70
56103;DHT22;41970;48.774;9.280;2022-09-09T03:54:59;16.60;98.60
56103;DHT22;41970;48.774;9.280;2022-09-09T03:57:25;16.10;99.50
56103;DHT22;41970;48.774;9.280;2022-09-09T03:59:51;15.90;99.90
56103;DHT22;41970;48.774;9.280;2022-09-09T04:02:17;15.60;99.90
56103;DHT22;41970;48.774;9.280;2022-09-09T04:04:42;15.60;99.90
56103;DHT22;41970;48.774;9.280;2022-09-09T04:07:08;15.50;99.90
56103;DHT22;41970;48.774;9.280;2022-09-09T04:09:34;15.40;99.90
56103;DHT22;41970;48.774;9.280;2022-09-09T04:12:00;15.60;99.90
56103;DHT22;41970;48.774;9.280;2022-09-09T04:14:26;15.80;99.90
56103;DHT22;41970;48.774;9.280;2022-09-09T04:16:54;15.80;99.90
56103;DHT22;41970;48.774;9.280;2022-09-09T04:19:21;15.70;99.90
56103;DHT22;41970;48.774;9.280;2022-09-09T04:21:47;15.60;99.90
56103;DHT22;41970;48.774;9.280;2022-09-09T04:24:16;15.50;99.90
56103;DHT22;41970;48.774;9.280;2022-09-09T04:26:43;15.50;99.90
56103;DHT22;41970;48.774;9.280;2022-09-09T04:29:09;15.50;99.90
56103;DHT22;41970;48.774;9.280;2022-09-09T04:31:35;15.50;99.90
56103;DHT22;41970;48.774;9.280;2022-09-09T04:34:01;15.50;99.90
56103;DHT22;41970;48.774;9.280;2022-09-09T04:36:32;15.60;99.90
56103;DHT22;41970;48.774;9.280;2022-09-09T04:38:59;15.70;99.90
56103;DHT22;41970;48.774;9.280;2022-09-09T04:41:24;15.70;99.90
56103;DHT22;41970;48.774;9.280;2022-09-09T04:43:50;15.90;99.90
56103;DHT22;41970;48.774;9.280;2022-09-09T04:46:17;16.00;99.90
56103;DHT22;41970;48.774;9.280;2022-09-09T04:48:43;15.90;99.90
56103;DHT22;41970;48.774;9.280;2022-09-09T04:51:12;15.80;99.90
56103;DHT22;41970;48.774;9.280;2022-09-09T04:53:39;15.70;99.90
56103;DHT22;41970;48.774;9.280;2022-09-09T04:56:08;15.80;99.90
56103;DHT22;41970;48.774;9.280;2022-09-09T04:58:36;15.90;99.90
56103;DHT22;41970;48.774;9.280;2022-09-09T05:01:10;15.80;99.90
56103;DHT22;41970;48.774;9.280;2022-09-09T05:03:39;15.80;99.90
56103;DHT22;41970;48.774;9.280;2022-09-09T05:06:10;15.90;99.90
56103;DHT22;41970;48.774;9.280;2022-09-09T05:08:41;15.80;99.90
56103;DHT22;41970;48.774;9.280;2022-09-09T05:11:21;15.80;99.90
56103;DHT22;41970;48.774;9.280;2022-09-09T05:13:49;15.90;99.90
56103;DHT22;41970;48.774;9.280;2022-09-09T05:16:16;16.20;99.90
56103;DHT22;41970;48.774;9.280;2022-09-09T05:18:42;16.30;99.90
56103;DHT22;41970;48.774;9.280;2022-09-09T05:21:09;16.50;99.90
56103;DHT22;41970;48.774;9.280;2022-09-09T05:23:36;16.60;99.90
56103;DHT22;41970;48.774;9.280;2022-09-09T05:26:03;16.60;99.90
56103;DHT22;41970;48.774;9.280;2022-09-09T05:28:29;16.50;99.90
56103;DHT22;41970;48.774;9.280;2022-09-09T05:31:00;16.60;99.90
56103;DHT22;41970;48.774;9.280;2022-09-09T05:33:29;16.70;99.90
56103;DHT22;41970;48.774;9.280;2022-09-09T05:36:06;16.80;99.90
56103;DHT22;41970;48.774;9.280;2022-09-09T05:38:36;16.90;99.90
56103;DHT22;41970;48.774;9.280;2022-09-09T05:41:03;16.70;99.90
56103;DHT22;41970;48.774;9.280;2022-09-09T05:43:30;16.70;99.90
56103;DHT22;41970;48.774;9.280;2022-09-09T05:46:21;16.80;99.90
56103;DHT22;41970;48.774;9.280;2022-09-09T05:48:49;16.80;99.90
56103;DHT22;41970;48.774;9.280;2022-09-09T05:51:26;16.80;99.90
56103;DHT22;41970;48.774;9.280;2022-09-09T05:53:53;16.80;99.90
56103;DHT22;41970;48.774;9.280;2022-09-09T05:56:29;16.80;99.90
56103;DHT22;41970;48.774;9.280;2022-09-09T05:58:56;16.70;99.90
56103;DHT22;41970;48.774;9.280;2022-09-09T06:01:27;16.50;99.90
56103;DHT22;41970;48.774;9.280;2022-09-09T06:03:53;16.30;99.90
56103;DHT22;41970;48.774;9.280;2022-09-09T06:06:24;16.30;99.90
56103;DHT22;41970;48.774;9.280;2022-09-09T06:08:52;16.30;99.90
56103;DHT22;41970;48.774;9.280;2022-09-09T06:11:24;16.40;99.90
56103;DHT22;41970;48.774;9.280;2022-09-09T06:13:50;16.20;99.90
56103;DHT22;41970;48.774;9.280;2022-09-09T06:16:21;16.10;99.90
56103;DHT22;41970;48.774;9.280;2022-09-09T06:18:49;16.10;99.90
56103;DHT22;41970;48.774;9.280;2022-09-09T06:21:21;16.10;99.90
56103;DHT22;41970;48.774;9.280;2022-09-09T06:23:48;16.10;99.90
56103;DHT22;41970;48.774;9.280;2022-09-09T06:26:16;16.20;99.90
56103;DHT22;41970;48.774;9.280;2022-09-09T06:28:49;16.20;99.90
56103;DHT22;41970;48.774;9.280;2022-09-09T06:31:17;16.20;99.90
56103;DHT22;41970;48.774;9.280;2022-09-09T06:33:43;16.20;99.90
56103;DHT22;41970;48.774;9.280;2022-09-09T06:36:32;16.20;99.90
56103;DHT22;41970;48.774;9.280;2022-09-09T06:38:59;16.20;99.90
56103;DHT22;41970;48.774;9.280;2022-09-09T06:41:27;16.30;99.90
56103;DHT22;41970;48.774;9.280;2022-09-09T06:43:53;16.40;99.90
56103;DHT22;41970;48.774;9.280;2022-09-09T06:46:25;16.40;99.90
56103;DHT22;41970;48.774;9.280;2022-09-09T06:48:53;16.40;99.90
56103;DHT22;41970;48.774;9.280;2022-09-09T06:51:22;16.40;99.90
56103;DHT22;41970;48.774;9.280;2022-09-09T06:53:50;16.40;99.90
56103;DHT22;41970;48.774;9.280;2022-09-09T06:56:18;16.50;99.90
56103;DHT22;41970;48.774;9.280;2022-09-09T06:58:44;16.50;99.90
56103;DHT22;41970;48.774;9.280;2022-09-09T07:01:19;16.70;99.90
56103;DHT22;41970;48.774;9.280;2022-09-09T07:03:47;16.80;99.90
56103;DHT22;41970;48.774;9.280;2022-09-09T07:06:24;16.80;99.90
56103;DHT22;41970;48.774;9.280;2022-09-09T07:08:55;16.80;99.90
56103;DHT22;41970;48.774;9.280;2022-09-09T07:11:23;17.00;99.90
56103;DHT22;41970;48.774;9.280;2022-09-09T07:13:49;17.20;99.90
56103;DHT22;41970;48.774;9.280;2022-09-09T07:16:17;17.40;99.90
56103;DHT22;41970;48.774;9.280;2022-09-09T07:18:44;17.50;99.90
56103;DHT22;41970;48.774;9.280;2022-09-09T07:21:12;17.60;99.90
56103;DHT22;41970;48.774;9.280;2022-09-09T07:23:38;17.70;99.90
56103;DHT22;41970;48.774;9.280;2022-09-09T07:26:13;17.90;99.90
56103;DHT22;41970;48.774;9.280;2022-09-09T07:28:40;18.10;99.90
56103;DHT22;41970;48.774;9.280;2022-09-09T07:31:14;18.30;99.60
56103;DHT22;41970;48.774;9.280;2022-09-09T07:33:43;18.30;99.90
56103;DHT22;41970;48.774;9.280;2022-09-09T07:36:14;18.30;99.70
56103;DHT22;41970;48.774;9.280;2022-09-09T07:38:46;18.10;99.90
56103;DHT22;41970;48.774;9.280;2022-09-09T07:41:18;18.40;99.80
56103;DHT22;41970;48.774;9.280;2022-09-09T07:43:46;18.60;99.10
56103;DHT22;41970;48.774;9.280;2022-09-09T07:46:14;19.00;98.70
56103;DHT22;41970;48.774;9.280;2022-09-09T07:48:48;19.20;98.10
56103;DHT22;41970;48.774;9.280;2022-09-09T07:51:23;19.20;98.00
56103;DHT22;41970;48.774;9.280;2022-09-09T07:53:54;19.10;98.70
56103;DHT22;41970;48.774;9.280;2022-09-09T07:56:20;19.60;98.30
56103;DHT22;41970;48.774;9.280;2022-09-09T07:58:51;20.10;97.50
56103;DHT22;41970;48.774;9.280;2022-09-09T08:01:39;20.30;96.40
56103;DHT22;41970;48.774;9.280;2022-09-09T08:04:08;20.40;96.30
56103;DHT22;41970;48.774;9.280;2022-09-09T08:06:37;20.60;96.10
56103;DHT22;41970;48.774;9.280;2022-09-09T08:09:04;20.50;96.50
56103;DHT22;41970;48.774;9.280;2022-09-09T08:11:30;21.40;95.80
56103;DHT22;41970;48.774;9.280;2022-09-09T08:13:58;22.40;94.50
56103;DHT22;41970;48.774;9.280;2022-09-09T08:16:29;23.10;92.00
56103;DHT22;41970;48.774;9.280;2022-09-09T08:18:56;23.80;91.20
56103;DHT22;41970;48.774;9.280;2022-09-09T08:21:25;23.50;90.80
56103;DHT22;41970;48.774;9.280;2022-09-09T08:23:54;22.60;92.00
56103;DHT22;41970;48.774;9.280;2022-09-09T08:26:35;21.90;93.00
56103;DHT22;41970;48.774;9.280;2022-09-09T08:29:03;21.20;93.90
56103;DHT22;41970;48.774;9.280;2022-09-09T08:31:35;21.10;94.50
56103;DHT22;41970;48.774;9.280;2022-09-09T08:34:03;21.50;94.90
56103;DHT22;41970;48.774;9.280;2022-09-09T08:36:35;22.60;92.80
56103;DHT22;41970;48.774;9.280;2022-09-09T08:39:03;24.20;92.20
56103;DHT22;41970;48.774;9.280;2022-09-09T08:41:51;25.00;89.50
56103;DHT22;41970;48.774;9.280;2022-09-09T08:47:42;26.20;82.80
56103;DHT22;41970;48.774;9.280;2022-09-09T08:55:23;27.10;79.30
56103;DHT22;41970;48.774;9.280;2022-09-09T08:57:52;26.50;79.10
56103;DHT22;41970;48.774;9.280;2022-09-09T09:00:20;26.20;80.40
56103;DHT22;41970;48.774;9.280;2022-09-09T09:03:06;26.30;81.90
56103;DHT22;41970;48.774;9.280;2022-09-09T09:10:53;25.90;79.30
56103;DHT22;41970;48.774;9.280;2022-09-09T09:13:20;25.60;80.30
56103;DHT22;41970;48.774;9.280;2022-09-09T09:15:52;25.70;80.10
56103;DHT22;41970;48.774;9.280;2022-09-09T09:18:19;26.00;78.40
56103;DHT22;41970;48.774;9.280;2022-09-09T09:20:58;26.00;77.20
56103;DHT22;41970;48.774;9.280;2022-09-09T09:23:35;26.30;77.00
56103;DHT22;41970;48.774;9.280;2022-09-09T09:26:08;26.40;76.30
56103;DHT22;41970;48.774;9.280;2022-09-09T09:28:36;26.40;76.00
56103;DHT22;41970;48.774;9.280;2022-09-09T09:31:11;26.30;74.80
56103;DHT22;41970;48.774;9.280;2022-09-09T09:36:08;25.40;75.70
56103;DHT22;41970;48.774;9.280;2022-09-09T09:38:34;24.90;74.70
56103;DHT22;41970;48.774;9.280;2022-09-09T09:41:01;24.60;73.70
56103;DHT22;41970;48.774;9.280;2022-09-09T09:43:39;24.20;78.00
56103;DHT22;41970;48.774;9.280;2022-09-09T09:46:23;23.80;78.80
56103;DHT22;41970;48.774;9.280;2022-09-09T09:49:04;23.20;80.80
56103;DHT22;41970;48.774;9.280;2022-09-09T09:51:34;23.20;82.90
56103;DHT22;41970;48.774;9.280;2022-09-09T09:56:41;22.90;90.40
56103;DHT22;41970;48.774;9.280;2022-09-09T10:02:21;23.40;85.10
56103;DHT22;41970;48.774;9.280;2022-09-09T10:07:31;23.80;84.40
56103;DHT22;41970;48.774;9.280;2022-09-09T10:09:58;23.80;85.60
56103;DHT22;41970;48.774;9.280;2022-09-09T10:15:07;23.70;87.50
56103;DHT22;41970;48.774;9.280;2022-09-09T10:29:29;24.00;85.00
56103;DHT22;41970;48.774;9.280;2022-09-09T10:35:13;24.00;83.10
56103;DHT22;41970;48.774;9.280;2022-09-09T10:43:14;24.10;81.30
56103;DHT22;41970;48.774;9.280;2022-09-09T10:46:11;24.10;84.30
56103;DHT22;41970;48.774;9.280;2022-09-09T10:51:41;24.10;81.30
56103;DHT22;41970;48.774;9.280;2022-09-09T10:57:06;24.30;80.40
56103;DHT22;41970;48.774;9.280;2022-09-09T10:59:40;24.30;81.90
56103;DHT22;41970;48.774;9.280;2022-09-09T11:02:26;24.40;81.80
56103;DHT22;41970;48.774;9.280;2022-09-09T11:05:06;24.40;81.60
56103;DHT22;41970;48.774;9.280;2022-09-09T11:07:47;24.40;79.70
56103;DHT22;41970;48.774;9.280;2022-09-09T11:10:37;24.50;80.30
56103;DHT22;41970;48.774;9.280;2022-09-09T11:13:28;24.50;79.50
56103;DHT22;41970;48.774;9.280;2022-09-09T11:18:49;24.50;81.80
56103;DHT22;41970;48.774;9.280;2022-09-09T11:21:23;24.30;79.50
56103;DHT22;41970;48.774;9.280;2022-09-09T11:24:01;24.30;80.60
56103;DHT22;41970;48.774;9.280;2022-09-09T11:26:35;24.30;82.90
56103;DHT22;41970;48.774;9.280;2022-09-09T11:29:29;24.10;82.20
56103;DHT22;41970;48.774;9.280;2022-09-09T11:32:25;24.00;83.40
56103;DHT22;41970;48.774;9.280;2022-09-09T11:34:56;24.00;83.00
56103;DHT22;41970;48.774;9.280;2022-09-09T11:40:24;23.60;80.50
56103;DHT22;41970;48.774;9.280;2022-09-09T11:43:03;23.30;77.00
56103;DHT22;41970;48.774;9.280;2022-09-09T11:45:32;22.90;76.20
56103;DHT22;41970;48.774;9.280;2022-09-09T11:48:00;22.60;81.90
56103;DHT22;41970;48.774;9.280;2022-09-09T11:50:28;22.30;83.10
56103;DHT22;41970;48.774;9.280;2022-09-09T11:55:39;22.10;85.80
56103;DHT22;41970;48.774;9.280;2022-09-09T11:58:15;22.00;84.80
56103;DHT22;41970;48.774;9.280;2022-09-09T12:00:47;21.90;85.90
56103;DHT22;41970;48.774;9.280;2022-09-09T12:06:26;21.70;85.80
56103;DHT22;41970;48.774;9.280;2022-09-09T12:08:57;21.70;85.40
56103;DHT22;41970;48.774;9.280;2022-09-09T12:11:30;21.90;84.70
56103;DHT22;41970;48.774;9.280;2022-09-09T12:13:59;22.00;82.20
56103;DHT22;41970;48.774;9.280;2022-09-09T12:16:37;22.10;78.50
56103;DHT22;41970;48.774;9.280;2022-09-09T12:24:48;22.40;79.40
56103;DHT22;41970;48.774;9.280;2022-09-09T12:27:40;22.30;77.10
56103;DHT22;41970;48.774;9.280;2022-09-09T12:30:14;22.30;76.60
56103;DHT22;41970;48.774;9.280;2022-09-09T12:32:40;22.30;77.30
56103;DHT22;41970;48.774;9.280;2022-09-09T12:35:23;22.40;75.80
56103;DHT22;41970;48.774;9.280;2022-09-09T12:37:53;22.50;74.40
56103;DHT22;41970;48.774;9.280;2022-09-09T12:40:24;22.70;74.90
56103;DHT22;41970;48.774;9.280;2022-09-09T12:42:51;22.70;74.80
56103;DHT22;41970;48.774;9.280;2022-09-09T12:45:19;22.60;73.10
56103;DHT22;41970;48.774;9.280;2022-09-09T12:50:26;22.70;72.50
56103;DHT22;41970;48.774;9.280;2022-09-09T12:53:07;22.70;74.10
56103;DHT22;41970;48.774;9.280;2022-09-09T12:55:37;22.70;73.20
56103;DHT22;41970;48.774;9.280;2022-09-09T12:58:06;22.70;72.30
56103;DHT22;41970;48.774;9.280;2022-09-09T13:00:35;22.70;71.00
56103;DHT22;41970;48.774;9.280;2022-09-09T13:03:14;22.70;72.00
56103;DHT22;41970;48.774;9.280;2022-09-09T13:05:42;22.80;72.40
56103;DHT22;41970;48.774;9.280;2022-09-09T13:08:10;22.90;72.90
56103;DHT22;41970;48.774;9.280;2022-09-09T13:10:41;23.00;72.20
56103;DHT22;41970;48.774;9.280;2022-09-09T13:13:17;23.10;73.00
56103;DHT22;41970;48.774;9.280;2022-09-09T13:16:20;23.20;71.50
56103;DHT22;41970;48.774;9.280;2022-09-09T13:18:46;23.20;71.20
56103;DHT22;41970;48.774;9.280;2022-09-09T13:21:12;23.10;71.20
56103;DHT22;41970;48.774;9.280;2022-09-09T13:23:39;23.10;71.90
56103;DHT22;41970;48.774;9.280;2022-09-09T13:26:26;23.10;72.70
56103;DHT22;41970;48.774;9.280;2022-09-09T13:28:54;23.00;74.00
56103;DHT22;41970;48.774;9.280;2022-09-09T13:31:24;23.20;73.80
56103;DHT22;41970;48.774;9.280;2022-09-09T13:33:50;23.30;73.10
56103;DHT22;41970;48.774;9.280;2022-09-09T13:36:31;23.40;71.90
56103;DHT22;41970;48.774;9.280;2022-09-09T13:38:59;23.40;71.50
56103;DHT22;41970;48.774;9.280;2022-09-09T13:41:35;23.50;71.50
56103;DHT22;41970;48.774;9.280;2022-09-09T13:44:02;23.60;71.40
56103;DHT22;41970;48.774;9.280;2022-09-09T13:46:40;23.80;71.80
56103;DHT22;41970;48.774;9.280;2022-09-09T13:51:44;24.00;71.20
56103;DHT22;41970;48.774;9.280;2022-09-09T13:54:14;24.10;68.90
56103;DHT22;41970;48.774;9.280;2022-09-09T13:56:41;24.20;69.80
56103;DHT22;41970;48.774;9.280;2022-09-09T13:59:15;24.10;69.80
56103;DHT22;41970;48.774;9.280;2022-09-09T14:01:42;24.10;68.10
56103;DHT22;41970;48.774;9.280;2022-09-09T14:04:09;24.00;68.50
56103;DHT22;41970;48.774;9.280;2022-09-09T14:06:36;24.00;69.00
56103;DHT22;41970;48.774;9.280;2022-09-09T14:09:05;24.00;68.70
56103;DHT22;41970;48.774;9.280;2022-09-09T14:11:32;23.90;69.00
56103;DHT22;41970;48.774;9.280;2022-09-09T14:13:58;23.80;69.40
56103;DHT22;41970;48.774;9.280;2022-09-09T14:16:24;23.60;70.20
56103;DHT22;41970;48.774;9.280;2022-09-09T14:18:53;23.60;70.40
56103;DHT22;41970;48.774;9.280;2022-09-09T14:21:21;23.70;70.20
56103;DHT22;41970;48.774;9.280;2022-09-09T14:23:47;23.70;68.90
56103;DHT22;41970;48.774;9.280;2022-09-09T14:26:14;23.80;69.10
56103;DHT22;41970;48.774;9.280;2022-09-09T14:28:40;23.90;69.10
56103;DHT22;41970;48.774;9.280;2022-09-09T14:31:07;24.00;69.20
56103;DHT22;41970;48.774;9.280;2022-09-09T14:33:35;24.10;67.60
56103;DHT22;41970;48.774;9.280;2022-09-09T14:36:05;24.20;66.20
56103;DHT22;41970;48.774;9.280;2022-09-09T14:38:35;24.30;66.20
56103;DHT22;41970;48.774;9.280;2022-09-09T14:41:23;24.40;66.70
56103;DHT22;41970;48.774;9.280;2022-09-09T14:43:49;24.50;66.20
56103;DHT22;41970;48.774;9.280;2022-09-09T14:46:17;24.40;64.50
56103;DHT22;41970;48.774;9.280;2022-09-09T14:48:43;24.40;66.20
56103;DHT22;41970;48.774;9.280;2022-09-09T14:51:16;24.50;64.80
56103;DHT22;41970;48.774;9.280;2022-09-09T14:53:43;24.40;64.10
56103;DHT22;41970;48.774;9.280;2022-09-09T14:56:12;24.40;64.80
56103;DHT22;41970;48.774;9.280;2022-09-09T14:58:39;24.20;65.60
56103;DHT22;41970;48.774;9.280;2022-09-09T15:01:10;24.20;65.60
56103;DHT22;41970;48.774;9.280;2022-09-09T15:03:39;24.10;65.30
56103;DHT22;41970;48.774;9.280;2022-09-09T15:06:12;24.10;65.20
56103;DHT22;41970;48.774;9.280;2022-09-09T15:08:43;24.00;65.30
56103;DHT22;41970;48.774;9.280;2022-09-09T15:11:11;23.90;64.60
56103;DHT22;41970;48.774;9.280;2022-09-09T15:13:38;23.90;64.50
56103;DHT22;41970;48.774;9.280;2022-09-09T15:16:10;24.00;64.80
56103;DHT22;41970;48.774;9.280;2022-09-09T15:18:37;24.00;64.70
56103;DHT22;41970;48.774;9.280;2022-09-09T15:21:22;24.00;64.50
56103;DHT22;41970;48.774;9.280;2022-09-09T15:23:49;24.00;65.60
56103;DHT22;41970;48.774;9.280;2022-09-09T15:26:16;24.00;64.30
56103;DHT22;41970;48.774;9.280;2022-09-09T15:28:44;23.90;65.00
56103;DHT22;41970;48.774;9.280;2022-09-09T15:31:18;23.80;65.70
56103;DHT22;41970;48.774;9.280;2022-09-09T15:33:49;23.80;65.10
56103;DHT22;41970;48.774;9.280;2022-09-09T15:36:24;23.70;65.20
56103;DHT22;41970;48.774;9.280;2022-09-09T15:38:51;23.60;65.50
56103;DHT22;41970;48.774;9.280;2022-09-09T15:41:19;23.50;66.20
56103;DHT22;41970;48.774;9.280;2022-09-09T15:43:48;23.40;66.40
56103;DHT22;41970;48.774;9.280;2022-09-09T15:46:34;23.50;67.10
56103;DHT22;41970;48.774;9.280;2022-09-09T15:49:12;23.40;67.20
56103;DHT22;41970;48.774;9.280;2022-09-09T15:51:44;23.40;67.30
56103;DHT22;41970;48.774;9.280;2022-09-09T15:54:13;23.30;66.80
56103;DHT22;41970;48.774;9.280;2022-09-09T15:56:41;23.30;67.10
56103;DHT22;41970;48.774;9.280;2022-09-09T15:59:07;23.30;68.10
56103;DHT22;41970;48.774;9.280;2022-09-09T16:01:34;23.40;68.10
56103;DHT22;41970;48.774;9.280;2022-09-09T16:04:01;23.30;68.10
56103;DHT22;41970;48.774;9.280;2022-09-09T16:06:29;23.20;68.30
56103;DHT22;41970;48.774;9.280;2022-09-09T16:08:57;23.20;67.60
56103;DHT22;41970;48.774;9.280;2022-09-09T16:11:27;23.10;66.90
56103;DHT22;41970;48.774;9.280;2022-09-09T16:13:55;23.00;67.50
56103;DHT22;41970;48.774;9.280;2022-09-09T16:16:26;22.90;67.10
56103;DHT22;41970;48.774;9.280;2022-09-09T16:18:59;22.90;67.50
56103;DHT22;41970;48.774;9.280;2022-09-09T16:21:30;22.80;66.60
56103;DHT22;41970;48.774;9.280;2022-09-09T16:23:59;22.80;66.90
56103;DHT22;41970;48.774;9.280;2022-09-09T16:26:27;22.70;67.30
56103;DHT22;41970;48.774;9.280;2022-09-09T16:28:53;22.70;67.70
56103;DHT22;41970;48.774;9.280;2022-09-09T16:31:24;22.70;67.70
56103;DHT22;41970;48.774;9.280;2022-09-09T16:33:51;22.80;68.30
56103;DHT22;41970;48.774;9.280;2022-09-09T16:36:20;22.70;68.30
56103;DHT22;41970;48.774;9.280;2022-09-09T16:38:47;22.70;68.80
56103;DHT22;41970;48.774;9.280;2022-09-09T16:41:14;22.70;68.30
56103;DHT22;41970;48.774;9.280;2022-09-09T16:43:41;22.70;69.00
56103;DHT22;41970;48.774;9.280;2022-09-09T16:46:17;22.70;69.20
56103;DHT22;41970;48.774;9.280;2022-09-09T16:48:47;22.70;69.90
56103;DHT22;41970;48.774;9.280;2022-09-09T16:51:33;22.60;70.20
56103;DHT22;41970;48.774;9.280;2022-09-09T16:54:02;22.50;71.70
56103;DHT22;41970;48.774;9.280;2022-09-09T16:56:30;22.40;72.20
56103;DHT22;41970;48.774;9.280;2022-09-09T16:59:04;22.20;72.80
56103;DHT22;41970;48.774;9.280;2022-09-09T17:01:33;22.00;73.60
56103;DHT22;41970;48.774;9.280;2022-09-09T17:04:04;21.80;73.80
56103;DHT22;41970;48.774;9.280;2022-09-09T17:06:33;21.70;72.70
56103;DHT22;41970;48.774;9.280;2022-09-09T17:09:03;21.50;72.00
56103;DHT22;41970;48.774;9.280;2022-09-09T17:11:30;21.40;72.90
56103;DHT22;41970;48.774;9.280;2022-09-09T17:13:58;21.30;72.80
56103;DHT22;41970;48.774;9.280;2022-09-09T17:16:27;21.20;73.10
56103;DHT22;41970;48.774;9.280;2022-09-09T17:18:54;21.20;73.40
56103;DHT22;41970;48.774;9.280;2022-09-09T17:21:23;21.20;73.50
56103;DHT22;41970;48.774;9.280;2022-09-09T17:23:51;21.10;72.50
56103;DHT22;41970;48.774;9.280;2022-09-09T17:26:20;21.10;72.80
56103;DHT22;41970;48.774;9.280;2022-09-09T17:28:47;21.10;72.80
56103;DHT22;41970;48.774;9.280;2022-09-09T17:31:16;21.10;73.00
56103;DHT22;41970;48.774;9.280;2022-09-09T17:33:45;21.10;73.80
56103;DHT22;41970;48.774;9.280;2022-09-09T17:36:16;21.10;73.90
56103;DHT22;41970;48.774;9.280;2022-09-09T17:38:44;21.20;74.00
56103;DHT22;41970;48.774;9.280;2022-09-09T17:41:18;21.20;74.20
56103;DHT22;41970;48.774;9.280;2022-09-09T17:43:45;21.30;74.30
56103;DHT22;41970;48.774;9.280;2022-09-09T17:46:16;21.30;74.30
56103;DHT22;41970;48.774;9.280;2022-09-09T17:48:44;21.30;74.80
56103;DHT22;41970;48.774;9.280;2022-09-09T17:51:16;21.30;74.90
56103;DHT22;41970;48.774;9.280;2022-09-09T17:53:46;21.30;75.30